Startpagina
METAR-TAF:

METAR-TAF

Vliegvelden :

Tiree, Schotland

breedte: 56-30N, lengte: 006-53W, hoogte: 12 m

Actueel weer

Dit bericht is 29 minuten geleden gemaakt, om 10:20 UTC
Wind 5 kt uit het zuidzuidoosten
Temperatuur 15°C
Vochtigheid 72%
Druk 1017 hPa
Zicht 10 km of meer
Verspreide wolken op 2500 ft
Gebroken wolken op 4200 ft

METAR: EGPU 181020Z 16005KT 9999 SCT025 BKN042 15/10 Q1017

Tijdstip: 11:49 (10:49 UTC)

Verwachting

Dit bericht is 2 uur en het 51 minuten geleden gemaakt, om 07:58 UTC
Verwachting geldig van 18 om 09 UTC tot 18 om 18 UTC
Wind 4 kt uit variabele richting
Zicht 10 km of meer
Weinig wolken op 2000 ft
Verspreide wolken op 3000 ft

TAF: EGPU 180758Z 1809/1818 VRB04KT 9999 FEW020 SCT030

Waarnemingen en weersverwachtingen van meer dan 4000 vliegvelden (METAR en TAF).

De beschikbare stations zijn de gele en rode punten op de kaart.

Ga met uw muis naar het station om de naam te zien.

Klik dan om waarnemingen en weersverwachtingen te zien.

kaart wijzigen: klik op de groene knoppen met een zwart kruis om in te zoomen, op de groene knop met een streepje om uit te zoomen of op de groene pijlen voor aangrenzende kaarten.


METAR-TAF: